This is the latest recevied weather packets stored in our database for station/object EA3GKP-10. If no packets are shown the sender has not sent any weather packets the latest 10 day(s).
| Time | Temp. | Humidity | Pressure | Rain* | Wind** | Luminosity | Snow |
|---|---|---|---|---|---|---|---|
| 1777996224 | 21.11° C | - | - | 0 mm | 1.34 m/s, 359° | - | - |
| 1777995921 | 21.11° C | - | - | 0 mm | 1.34 m/s, 359° | - | - |
| 1777995618 | 21.11° C | - | - | 0 mm | 2.68 m/s, 359° | - | - |
| 1777995315 | 22.22° C | - | - | 0 mm | 1.34 m/s, 359° | - | - |
| 1777995012 | 22.22° C | - | - | 0 mm | 0.89 m/s, 359° | - | - |
| 1777994709 | 21.11° C | - | - | 0 mm | 3.13 m/s, 98° | - | - |
| 1777994406 | 21.67° C | - | - | 0 mm | 1.79 m/s, 91° | - | - |
| 1777994102 | 20.56° C | - | - | 0 mm | 2.24 m/s, 73° | - | - |
| 1777993797 | 22.22° C | - | - | 0 mm | 0.89 m/s, 359° | - | - |
| 1777993490 | 22.78° C | - | - | 0 mm | 0 m/s | - | - |
| 1777993184 | 22.78° C | - | - | 0 mm | 0 m/s | - | - |
| 1777992877 | 22.78° C | - | - | 0 mm | 1.79 m/s, 359° | - | - |
| 1777992571 | 21.67° C | - | - | 0 mm | 2.68 m/s, 359° | - | - |
| 1777992262 | 22.78° C | - | - | 0 mm | 0 m/s | - | - |
| 1777991655 | 22.78° C | - | - | 0 mm | 2.24 m/s, 87° | - | - |
| 1777991348 | 22.78° C | - | - | 0 mm | 1.79 m/s, 83° | - | - |
| 1777991043 | 22.22° C | - | - | 0 mm | 2.68 m/s, 141° | - | - |
| 1777990739 | 22.78° C | - | - | 0 mm | 2.24 m/s, 118° | - | - |
| 1777989824 | 22.22° C | - | - | 0 mm | 0.45 m/s, 359° | - | - |
| 1777989515 | 22.22° C | - | - | 0 mm | 2.24 m/s, 107° | - | - |
| 1777989214 | 22.22° C | - | - | 0 mm | 1.34 m/s, 328° | - | - |
| 1777988910 | 22.22° C | - | - | 0 mm | 1.34 m/s, 75° | - | - |
| 1777988606 | 21.11° C | - | - | 0 mm | 1.79 m/s, 89° | - | - |
| 1777988299 | 22.78° C | - | - | 0 mm | 2.24 m/s, 70° | - | - |
| 1777987993 | 22.22° C | - | - | 0 mm | 0.89 m/s, 118° | - | - |
* Rain latest hour (hover to see other rain measurements)
** Current wind speed in m/s (hover to see current wind gust speed)